createdAt,value
2018-07-03T00:00:00.332Z,13.70
2018-07-03T00:02:28.835Z,13.70
2018-07-03T00:04:57.666Z,13.60
2018-07-03T00:07:26.636Z,13.70
2018-07-03T00:09:55.099Z,13.80
2018-07-03T00:12:24.514Z,13.70
2018-07-03T00:14:53.088Z,13.60
2018-07-03T00:17:21.687Z,13.50
2018-07-03T00:19:51.392Z,13.50
2018-07-03T00:22:21.216Z,13.50
2018-07-03T00:24:50.030Z,13.50
2018-07-03T00:27:19.077Z,13.50
2018-07-03T00:29:47.512Z,13.50
2018-07-03T00:32:16.111Z,13.40
2018-07-03T00:34:44.575Z,13.20
2018-07-03T00:37:13.127Z,13.10
2018-07-03T00:39:41.688Z,13.10
2018-07-03T00:42:10.268Z,13.10
2018-07-03T00:44:38.842Z,13.10
2018-07-03T00:47:07.435Z,13.10
2018-07-03T00:49:36.206Z,13.00
2018-07-03T00:52:04.816Z,13.10
2018-07-03T00:54:33.482Z,13.10
2018-07-03T00:57:02.016Z,13.10
2018-07-03T00:59:30.603Z,13.00
2018-07-03T01:02:00.067Z,13.10
2018-07-03T01:04:29.158Z,13.00
2018-07-03T01:06:58.451Z,12.80
2018-07-03T01:09:27.235Z,12.80
2018-07-03T01:11:55.791Z,12.80
2018-07-03T01:14:24.383Z,12.70
2018-07-03T01:16:53.161Z,12.80
2018-07-03T01:19:21.969Z,12.70
2018-07-03T01:21:50.645Z,12.60
2018-07-03T01:24:19.188Z,12.60
2018-07-03T01:26:47.867Z,12.60
2018-07-03T01:29:16.501Z,12.50
2018-07-03T01:31:45.182Z,12.50
2018-07-03T01:34:13.787Z,12.50
2018-07-03T01:36:42.308Z,12.50
2018-07-03T01:39:11.152Z,12.50
2018-07-03T01:41:39.726Z,12.60
2018-07-03T01:44:08.191Z,12.50
2018-07-03T01:46:36.761Z,12.40
2018-07-03T01:49:05.347Z,12.40
2018-07-03T01:51:33.984Z,12.30
2018-07-03T01:54:02.481Z,12.30
2018-07-03T01:56:30.996Z,12.30
2018-07-03T01:58:59.739Z,12.20
2018-07-03T02:01:28.495Z,12.10
2018-07-03T02:03:57.047Z,12.20
2018-07-03T02:06:25.647Z,12.30
2018-07-03T02:08:54.270Z,12.20
2018-07-03T02:11:23.484Z,12.20
2018-07-03T02:13:52.078Z,12.10
2018-07-03T02:16:20.702Z,12.10
2018-07-03T02:18:49.287Z,12.00
2018-07-03T02:21:17.704Z,12.00
2018-07-03T02:23:46.495Z,12.00
2018-07-03T02:26:15.064Z,12.10
2018-07-03T02:28:44.130Z,12.10
2018-07-03T02:31:12.799Z,12.00
2018-07-03T02:33:41.435Z,11.90
2018-07-03T02:36:10.017Z,12.00
2018-07-03T02:38:39.016Z,12.00
2018-07-03T02:41:08.041Z,11.80
2018-07-03T02:43:36.855Z,11.80
2018-07-03T02:46:05.666Z,11.80
2018-07-03T02:48:34.202Z,11.90
2018-07-03T02:51:02.782Z,11.90
2018-07-03T02:53:31.547Z,11.90
2018-07-03T02:56:00.255Z,11.90
2018-07-03T02:58:28.856Z,12.00
2018-07-03T03:00:57.304Z,12.00
2018-07-03T03:03:25.885Z,12.00
2018-07-03T03:05:54.572Z,11.90
2018-07-03T03:08:24.505Z,11.90
2018-07-03T03:10:53.263Z,12.00
2018-07-03T03:13:21.731Z,12.00
2018-07-03T03:15:50.463Z,12.10
2018-07-03T03:18:19.075Z,12.10
2018-07-03T03:20:47.595Z,12.20
2018-07-03T03:23:16.220Z,12.30
2018-07-03T03:25:44.770Z,12.50
2018-07-03T03:28:15.806Z,12.50
2018-07-03T03:30:44.339Z,12.50
2018-07-03T03:33:12.843Z,12.50
2018-07-03T03:35:41.313Z,12.60
2018-07-03T03:38:09.901Z,12.60
2018-07-03T03:40:38.612Z,12.60
2018-07-03T03:43:07.120Z,12.60
2018-07-03T03:45:35.659Z,12.60
2018-07-03T03:48:04.185Z,12.50
2018-07-03T03:50:32.718Z,12.40
2018-07-03T03:53:02.108Z,12.30
2018-07-03T03:55:30.790Z,12.20
2018-07-03T03:57:59.938Z,12.20
2018-07-03T04:00:28.704Z,12.40
2018-07-03T04:02:57.244Z,12.40
2018-07-03T04:05:25.822Z,12.40
2018-07-03T04:07:54.428Z,12.40
2018-07-03T04:10:22.901Z,12.40
2018-07-03T04:12:51.470Z,12.40
2018-07-03T04:15:20.183Z,12.30
2018-07-03T04:17:48.676Z,12.40
2018-07-03T04:20:17.331Z,12.50
2018-07-03T04:22:45.815Z,12.70
2018-07-03T04:25:14.359Z,12.70
2018-07-03T04:27:42.886Z,12.70
2018-07-03T04:30:11.618Z,12.80
2018-07-03T04:32:41.055Z,12.80
2018-07-03T04:35:09.622Z,12.80
2018-07-03T04:37:38.497Z,13.00
2018-07-03T04:40:06.969Z,13.00
2018-07-03T04:42:35.485Z,13.00
2018-07-03T04:45:04.693Z,13.10
2018-07-03T04:47:33.131Z,13.10
2018-07-03T04:50:01.908Z,13.20
2018-07-03T04:52:30.441Z,13.30
2018-07-03T04:54:59.162Z,13.40
2018-07-03T04:57:27.728Z,13.50
2018-07-03T04:59:56.383Z,13.50
2018-07-03T05:02:24.916Z,13.70
2018-07-03T05:04:53.588Z,13.70
2018-07-03T05:07:22.102Z,13.80
2018-07-03T05:09:50.923Z,14.00
2018-07-03T05:12:19.566Z,14.10
2018-07-03T05:14:48.117Z,14.20
2018-07-03T05:17:16.664Z,14.40
2018-07-03T05:19:45.751Z,14.50
2018-07-03T05:22:14.218Z,14.60
2018-07-03T05:24:42.924Z,14.70
2018-07-03T05:27:11.490Z,14.80
2018-07-03T05:29:40.338Z,15.00
2018-07-03T05:32:09.046Z,15.10
2018-07-03T05:37:05.953Z,15.70
2018-07-03T05:39:34.387Z,15.80
2018-07-03T05:42:03.120Z,15.80
2018-07-03T05:44:31.715Z,15.90
2018-07-03T05:47:00.298Z,16.00
2018-07-03T05:49:29.061Z,16.20
2018-07-03T05:51:57.543Z,16.30
2018-07-03T05:54:26.020Z,16.40
2018-07-03T05:56:54.933Z,16.50
2018-07-03T05:59:23.595Z,16.60
2018-07-03T06:01:52.340Z,16.60
2018-07-03T06:04:20.791Z,16.70
2018-07-03T06:06:49.276Z,16.70
2018-07-03T06:09:17.945Z,16.90
2018-07-03T06:11:46.351Z,17.00
2018-07-03T06:14:14.922Z,17.20
2018-07-03T06:16:43.603Z,17.40
2018-07-03T06:19:12.318Z,17.60
2018-07-03T06:21:41.231Z,17.70
2018-07-03T06:24:09.724Z,17.80
2018-07-03T06:26:38.316Z,17.90
2018-07-03T06:29:06.943Z,17.90
2018-07-03T06:31:35.773Z,18.00
2018-07-03T06:34:04.319Z,18.20
2018-07-03T06:36:32.802Z,18.30
2018-07-03T06:39:01.440Z,18.40
2018-07-03T06:41:29.930Z,18.60
2018-07-03T06:43:58.440Z,18.70
2018-07-03T06:46:27.760Z,18.80
2018-07-03T06:48:56.187Z,19.10
2018-07-03T06:51:24.979Z,19.30
2018-07-03T06:53:53.563Z,19.40
2018-07-03T06:56:22.296Z,19.60
2018-07-03T06:58:50.964Z,19.80
2018-07-03T07:01:19.651Z,19.90
2018-07-03T07:03:48.203Z,20.10
2018-07-03T07:06:16.899Z,20.30
2018-07-03T07:08:45.465Z,20.50
2018-07-03T07:11:13.900Z,20.70
2018-07-03T07:13:42.839Z,20.90
2018-07-03T07:16:11.499Z,21.00
2018-07-03T07:18:40.311Z,21.10
2018-07-03T07:21:09.033Z,21.20
2018-07-03T07:23:38.223Z,21.30
2018-07-03T07:26:07.702Z,21.50
2018-07-03T07:28:36.426Z,21.70
2018-07-03T07:31:05.175Z,21.80
2018-07-03T07:33:33.926Z,21.90
2018-07-03T07:36:02.573Z,22.00
2018-07-03T07:38:31.172Z,22.20
2018-07-03T07:40:59.843Z,22.20
2018-07-03T07:43:28.304Z,22.40
2018-07-03T07:45:57.267Z,22.40
2018-07-03T07:48:25.984Z,22.50
2018-07-03T07:50:54.438Z,22.60
2018-07-03T07:53:22.912Z,22.80
2018-07-03T07:55:51.485Z,22.90
2018-07-03T07:58:19.992Z,23.10
2018-07-03T08:00:48.552Z,23.20
2018-07-03T08:03:17.178Z,23.30
2018-07-03T08:05:46.178Z,23.30
2018-07-03T08:08:14.775Z,23.40
2018-07-03T08:10:43.596Z,23.50
2018-07-03T08:13:12.186Z,23.60
2018-07-03T08:15:40.732Z,23.80
2018-07-03T08:18:09.398Z,24.00
2018-07-03T08:20:38.014Z,24.00
2018-07-03T08:23:06.687Z,24.10
2018-07-03T08:25:35.150Z,24.30
2018-07-03T08:28:03.853Z,24.40
2018-07-03T08:30:32.410Z,24.60
2018-07-03T08:33:00.863Z,24.50
2018-07-03T08:35:29.413Z,24.50
2018-07-03T08:37:57.875Z,24.70
2018-07-03T08:40:26.371Z,24.70
2018-07-03T08:42:55.427Z,24.80
2018-07-03T08:45:23.883Z,25.00
2018-07-03T08:47:53.169Z,25.00
2018-07-03T08:50:21.834Z,25.10
2018-07-03T08:52:50.524Z,25.30
2018-07-03T08:55:19.143Z,25.40
2018-07-03T08:57:47.995Z,25.40
2018-07-03T09:00:16.512Z,25.40
2018-07-03T09:02:45.047Z,25.50
2018-07-03T09:05:13.826Z,25.70
2018-07-03T09:07:42.270Z,25.80
2018-07-03T09:10:10.989Z,25.90
2018-07-03T09:12:39.575Z,26.00
2018-07-03T09:15:08.871Z,26.10
2018-07-03T09:17:38.231Z,26.00
2018-07-03T09:20:07.176Z,26.20
2018-07-03T09:22:35.771Z,26.30
2018-07-03T09:25:04.467Z,26.30
2018-07-03T09:27:32.915Z,26.50
2018-07-03T09:30:01.639Z,26.50
2018-07-03T09:32:30.339Z,26.50
2018-07-03T09:34:58.871Z,26.50
2018-07-03T09:37:28.060Z,26.60
2018-07-03T09:39:56.876Z,26.60
2018-07-03T09:42:25.807Z,26.50
2018-07-03T09:44:54.480Z,26.50
2018-07-03T09:47:23.973Z,26.50
2018-07-03T09:49:52.526Z,26.40
2018-07-03T09:52:21.679Z,26.30
2018-07-03T09:54:50.337Z,26.00
2018-07-03T09:57:19.675Z,25.90
2018-07-03T09:59:48.251Z,25.80
2018-07-03T10:02:16.745Z,25.90
2018-07-03T10:04:45.409Z,26.30
2018-07-03T10:07:14.724Z,26.40
2018-07-03T10:09:43.325Z,26.50
2018-07-03T10:12:11.939Z,26.50
2018-07-03T10:14:40.381Z,26.40
2018-07-03T10:17:11.170Z,26.40
2018-07-03T10:19:40.704Z,26.40
2018-07-03T10:22:09.258Z,26.50
2018-07-03T10:24:38.106Z,26.60
2018-07-03T10:27:06.652Z,26.70
2018-07-03T10:29:35.248Z,26.70
2018-07-03T10:32:04.534Z,26.80
2018-07-03T10:34:33.181Z,26.90
2018-07-03T10:37:01.684Z,27.00
2018-07-03T10:39:30.150Z,27.00
2018-07-03T10:41:59.082Z,26.80
2018-07-03T10:44:27.497Z,26.90
2018-07-03T10:46:56.197Z,27.10
2018-07-03T10:49:25.158Z,27.30
2018-07-03T10:51:54.909Z,27.10
2018-07-03T10:54:23.344Z,27.00
2018-07-03T10:56:52.475Z,26.80
2018-07-03T10:59:20.952Z,26.80
2018-07-03T11:01:49.447Z,26.80
2018-07-03T11:04:17.882Z,26.70
2018-07-03T11:06:46.327Z,26.70
2018-07-03T11:09:15.005Z,26.70
2018-07-03T11:11:43.481Z,26.60
2018-07-03T11:14:12.006Z,26.60
2018-07-03T11:16:40.716Z,26.60
2018-07-03T11:19:09.839Z,26.70
2018-07-03T11:21:38.504Z,26.90
2018-07-03T11:24:07.282Z,27.10
2018-07-03T11:26:35.894Z,27.60
2018-07-03T11:29:05.184Z,28.00
2018-07-03T11:31:33.883Z,28.20
2018-07-03T11:34:02.321Z,28.40
2018-07-03T11:36:31.006Z,28.60
2018-07-03T11:38:59.603Z,29.00
2018-07-03T11:41:28.084Z,29.20
2018-07-03T11:43:56.511Z,29.30
2018-07-03T11:46:25.064Z,29.30
2018-07-03T11:48:53.589Z,29.30
2018-07-03T11:51:22.136Z,29.10
2018-07-03T11:53:50.665Z,29.10
2018-07-03T11:56:19.187Z,29.00
2018-07-03T11:58:47.723Z,28.80
2018-07-03T12:01:16.316Z,28.90
2018-07-03T12:03:44.823Z,29.10
2018-07-03T12:06:13.806Z,29.00
2018-07-03T12:08:42.311Z,29.20
2018-07-03T12:11:11.140Z,29.50
2018-07-03T12:13:39.567Z,29.10
2018-07-03T12:16:08.148Z,29.30
2018-07-03T12:18:41.990Z,29.10
2018-07-03T12:21:10.468Z,29.30
2018-07-03T12:23:38.955Z,29.50
2018-07-03T12:26:07.592Z,29.70
2018-07-03T12:28:36.175Z,29.90
2018-07-03T12:31:04.751Z,29.60
2018-07-03T12:33:33.287Z,29.40
2018-07-03T12:36:01.827Z,29.10
2018-07-03T12:38:30.356Z,29.30
2018-07-03T12:40:58.899Z,29.50
2018-07-03T12:43:27.439Z,29.40
2018-07-03T12:45:56.048Z,29.90
2018-07-03T12:48:24.500Z,30.20
2018-07-03T12:50:52.983Z,30.50
2018-07-03T12:53:21.597Z,30.90
2018-07-03T12:55:50.102Z,31.40
2018-07-03T12:58:18.591Z,31.60
2018-07-03T13:00:47.346Z,30.80
2018-07-03T13:03:15.982Z,30.10
2018-07-03T13:05:44.507Z,29.60
2018-07-03T13:08:13.070Z,29.20
2018-07-03T13:10:41.517Z,29.00
2018-07-03T13:13:10.078Z,28.80
2018-07-03T13:15:38.659Z,28.80
2018-07-03T13:18:13.510Z,28.80
2018-07-03T13:20:42.147Z,28.50
2018-07-03T13:23:11.250Z,28.70
2018-07-03T13:25:39.874Z,29.10
2018-07-03T13:28:08.394Z,29.20
2018-07-03T13:30:36.867Z,29.30
2018-07-03T13:33:05.711Z,29.40
2018-07-03T13:35:34.302Z,29.60
2018-07-03T13:38:02.819Z,29.90
2018-07-03T13:40:31.426Z,29.80
2018-07-03T13:42:59.864Z,30.20
2018-07-03T13:45:28.456Z,30.20
2018-07-03T13:47:56.996Z,30.30
2018-07-03T13:50:25.487Z,30.50
2018-07-03T13:52:53.905Z,30.40
2018-07-03T13:55:22.476Z,29.90
2018-07-03T13:57:50.960Z,30.10
2018-07-03T14:00:19.424Z,30.50
2018-07-03T14:02:47.932Z,31.00
2018-07-03T14:05:16.427Z,31.60
2018-07-03T14:07:45.016Z,32.30
2018-07-03T14:10:13.816Z,32.60
2018-07-03T14:12:42.259Z,32.80
2018-07-03T14:15:10.840Z,32.30
2018-07-03T14:17:39.536Z,32.10
2018-07-03T14:20:08.074Z,31.90
2018-07-03T14:22:36.741Z,31.80
2018-07-03T14:25:05.379Z,31.60
2018-07-03T14:27:33.982Z,31.10
2018-07-03T14:30:02.772Z,30.80
2018-07-03T14:34:59.474Z,30.60
2018-07-03T14:37:28.055Z,30.90
2018-07-03T14:39:56.549Z,31.00
2018-07-03T14:42:25.177Z,30.80
2018-07-03T14:44:53.691Z,31.60
2018-07-03T14:47:22.296Z,33.20
2018-07-03T14:49:50.886Z,33.30
2018-07-03T14:52:20.589Z,32.70
2018-07-03T14:54:49.485Z,32.20
2018-07-03T14:57:18.057Z,32.10
2018-07-03T15:00:02.560Z,32.60
2018-07-03T15:02:31.520Z,34.00
2018-07-03T15:05:00.483Z,34.30
2018-07-03T15:07:29.100Z,34.50
2018-07-03T15:09:57.677Z,34.40
2018-07-03T15:12:26.329Z,33.90
2018-07-03T15:14:54.910Z,33.70
2018-07-03T15:17:23.947Z,34.20
2018-07-03T15:19:57.771Z,35.50
2018-07-03T15:27:22.753Z,33.50
2018-07-03T15:29:51.319Z,32.80
2018-07-03T15:32:19.932Z,32.60
2018-07-03T15:34:48.458Z,33.30
2018-07-03T15:37:17.002Z,33.60
2018-07-03T15:39:45.516Z,32.90
2018-07-03T15:42:14.054Z,32.80
2018-07-03T15:44:53.891Z,32.00
2018-07-03T15:47:22.460Z,33.20
2018-07-03T15:49:52.705Z,34.50
2018-07-03T15:52:21.313Z,35.70
2018-07-03T15:54:49.757Z,36.00
2018-07-03T15:57:18.243Z,36.90
2018-07-03T15:59:46.804Z,38.00
2018-07-03T16:02:15.659Z,38.60
2018-07-03T16:05:03.663Z,38.60
2018-07-03T16:07:43.533Z,38.70
2018-07-03T16:12:40.242Z,37.50
2018-07-03T16:15:09.165Z,37.00
2018-07-03T16:17:37.712Z,37.70
2018-07-03T16:20:11.644Z,38.00
2018-07-03T16:22:40.307Z,38.80
2018-07-03T16:25:09.531Z,39.40
2018-07-03T16:27:38.089Z,39.10
2018-07-03T16:30:08.068Z,37.90
2018-07-03T16:32:36.838Z,36.40
2018-07-03T16:35:06.074Z,35.40
2018-07-03T16:37:34.873Z,34.30
2018-07-03T16:40:03.728Z,33.80
2018-07-03T16:42:32.345Z,33.20
2018-07-03T16:45:00.997Z,33.80
2018-07-03T16:47:29.644Z,34.50
2018-07-03T16:49:58.295Z,35.70
2018-07-03T16:52:26.939Z,35.00
2018-07-03T16:54:55.774Z,34.90
2018-07-03T16:57:24.222Z,34.00
2018-07-03T16:59:52.659Z,34.00
2018-07-03T17:02:21.156Z,34.20
2018-07-03T17:04:49.834Z,34.20
2018-07-03T17:09:46.531Z,35.00
2018-07-03T17:12:15.040Z,34.80
2018-07-03T17:14:43.566Z,35.10
2018-07-03T17:17:12.252Z,34.70
2018-07-03T17:19:41.855Z,33.70
2018-07-03T17:22:10.543Z,33.00
2018-07-03T17:24:39.046Z,33.00
2018-07-03T17:27:07.506Z,32.00
2018-07-03T17:29:35.955Z,31.10
2018-07-03T17:32:04.587Z,30.30
2018-07-03T17:34:33.215Z,30.10
2018-07-03T17:37:01.769Z,29.90
2018-07-03T17:39:41.745Z,29.70
2018-07-03T17:42:21.586Z,29.70
2018-07-03T17:45:59.500Z,30.30
2018-07-03T17:48:28.050Z,30.20
2018-07-03T17:50:56.696Z,29.90
2018-07-03T17:53:25.266Z,29.90
2018-07-03T17:55:53.913Z,30.20
2018-07-03T17:58:22.595Z,30.00
2018-07-03T18:00:51.298Z,29.60
2018-07-03T18:03:19.904Z,29.30
2018-07-03T18:05:48.449Z,29.10
2018-07-03T18:08:17.204Z,28.70
2018-07-03T18:10:45.696Z,28.30
2018-07-03T18:13:14.432Z,28.10
2018-07-03T18:15:43.137Z,27.90
2018-07-03T18:18:11.972Z,27.60
2018-07-03T18:20:40.675Z,27.40
2018-07-03T18:23:09.307Z,27.20
2018-07-03T18:25:37.840Z,27.10
2018-07-03T18:28:06.579Z,27.00
2018-07-03T18:30:35.242Z,26.90
2018-07-03T18:33:03.783Z,26.70
2018-07-03T18:35:32.270Z,26.50
2018-07-03T18:38:00.808Z,26.20
2018-07-03T18:40:29.563Z,26.00
2018-07-03T18:42:58.235Z,25.90
2018-07-03T18:45:26.969Z,25.80
2018-07-03T18:47:55.722Z,25.50
2018-07-03T18:50:24.521Z,25.50
2018-07-03T18:52:53.708Z,25.50
2018-07-03T18:55:22.418Z,25.50
2018-07-03T18:57:51.187Z,25.40
2018-07-03T19:00:19.908Z,25.10
2018-07-03T19:02:48.629Z,24.80
2018-07-03T19:05:18.590Z,24.40
2018-07-03T19:07:47.333Z,24.10
2018-07-03T19:10:16.294Z,24.00
2018-07-03T19:12:44.777Z,23.70
2018-07-03T19:15:13.498Z,23.60
2018-07-03T19:17:42.232Z,23.40
2018-07-03T19:20:10.869Z,23.10
2018-07-03T19:22:39.745Z,23.10
2018-07-03T19:25:08.257Z,22.90
2018-07-03T19:27:36.869Z,22.70
2018-07-03T19:30:06.160Z,22.50
2018-07-03T19:32:34.662Z,22.30
2018-07-03T19:35:03.337Z,22.00
2018-07-03T19:37:32.028Z,21.80
2018-07-03T19:40:00.746Z,21.50
2018-07-03T19:42:29.314Z,21.40
2018-07-03T19:44:57.832Z,21.20
2018-07-03T19:47:26.715Z,21.00
2018-07-03T19:49:55.324Z,20.70
2018-07-03T19:52:23.899Z,20.50
2018-07-03T19:54:52.438Z,20.40
2018-07-03T19:57:21.374Z,20.30
2018-07-03T19:59:49.983Z,20.10
2018-07-03T20:04:46.717Z,19.90
2018-07-03T20:07:15.232Z,19.70
2018-07-03T20:09:43.728Z,19.80
2018-07-03T20:12:12.228Z,19.70
2018-07-03T20:14:40.828Z,19.70
2018-07-03T20:17:09.339Z,19.50
2018-07-03T20:19:38.155Z,19.40
2018-07-03T20:22:06.797Z,19.30
2018-07-03T20:24:35.228Z,19.20
2018-07-03T20:27:03.711Z,19.20
2018-07-03T20:29:32.296Z,19.10
2018-07-03T20:32:00.866Z,19.00
2018-07-03T20:34:29.405Z,18.90
2018-07-03T20:36:58.055Z,18.70
2018-07-03T20:39:26.512Z,18.50
2018-07-03T20:41:55.007Z,18.50
2018-07-03T20:44:23.455Z,18.40
2018-07-03T20:46:52.170Z,18.40
2018-07-03T20:49:20.662Z,18.40
2018-07-03T20:51:49.157Z,18.20
2018-07-03T20:54:17.699Z,18.20
2018-07-03T20:59:14.691Z,18.00
2018-07-03T21:01:43.143Z,17.90
2018-07-03T21:04:11.999Z,17.80
2018-07-03T21:06:40.448Z,17.70
2018-07-03T21:09:09.996Z,17.70
2018-07-03T21:11:38.563Z,17.60
2018-07-03T21:14:07.595Z,17.50
2018-07-03T21:16:36.122Z,17.40
2018-07-03T21:19:04.994Z,17.30
2018-07-03T21:21:33.663Z,17.20
2018-07-03T21:24:02.290Z,17.30
2018-07-03T21:26:30.820Z,17.20
2018-07-03T21:28:59.460Z,17.10
2018-07-03T21:31:28.033Z,16.90
2018-07-03T21:33:56.542Z,16.80
2018-07-03T21:36:25.226Z,16.80
2018-07-03T21:38:53.930Z,16.70
2018-07-03T21:41:22.453Z,16.60
2018-07-03T21:43:51.018Z,16.70
2018-07-03T21:46:19.537Z,16.70
2018-07-03T21:48:48.036Z,16.70
2018-07-03T21:51:16.460Z,16.70
2018-07-03T21:53:44.996Z,16.60
2018-07-03T21:56:13.467Z,16.50
2018-07-03T21:58:42.011Z,16.40
2018-07-03T22:01:10.447Z,16.30
2018-07-03T22:03:38.862Z,16.40
2018-07-03T22:06:07.314Z,16.40
2018-07-03T22:08:35.807Z,16.40
2018-07-03T22:11:04.183Z,16.40
2018-07-03T22:13:32.739Z,16.40
2018-07-03T22:16:01.184Z,16.40
2018-07-03T22:18:29.719Z,16.40
2018-07-03T22:20:58.184Z,16.40
2018-07-03T22:23:26.650Z,16.50
2018-07-03T22:25:55.283Z,16.50
2018-07-03T22:28:23.696Z,16.60
2018-07-03T22:30:52.204Z,16.60
2018-07-03T22:33:20.670Z,16.50
2018-07-03T22:35:49.281Z,16.40
2018-07-03T22:38:17.951Z,16.40
2018-07-03T22:40:46.447Z,16.40
2018-07-03T22:43:14.982Z,16.30
2018-07-03T22:45:43.468Z,16.30
2018-07-03T22:48:12.032Z,16.40
2018-07-03T22:50:40.651Z,16.60
2018-07-03T22:53:09.329Z,16.60
2018-07-03T22:55:37.798Z,16.70
2018-07-03T22:58:06.399Z,16.60
2018-07-03T23:00:34.846Z,16.50
2018-07-03T23:03:03.386Z,16.50
2018-07-03T23:05:31.771Z,16.40
2018-07-03T23:08:00.266Z,16.30
2018-07-03T23:10:28.845Z,16.30
2018-07-03T23:12:57.355Z,16.30
2018-07-03T23:15:25.998Z,16.30
2018-07-03T23:17:54.547Z,16.30
2018-07-03T23:20:23.023Z,16.40
2018-07-03T23:22:51.497Z,16.50
2018-07-03T23:25:20.002Z,16.50
2018-07-03T23:27:48.552Z,16.40
2018-07-03T23:30:17.009Z,16.30
2018-07-03T23:32:45.409Z,16.20
2018-07-03T23:35:13.904Z,16.20
2018-07-03T23:37:42.376Z,16.20
2018-07-03T23:40:10.847Z,16.10
2018-07-03T23:42:39.334Z,16.10
2018-07-03T23:45:08.214Z,16.10
2018-07-03T23:47:47.890Z,16.10
2018-07-03T23:50:27.575Z,16.00
2018-07-03T23:53:07.201Z,15.90
2018-07-03T23:55:46.976Z,15.80
2018-07-03T23:58:26.643Z,15.80
